San Diego, California
Traffic Map
Current Weather Conditions
San Diego, California
Clear
Clear
17°
Feels Like: 17°
Wind Chill: 17° Ceiling: Unl
Heat Index: 17° Visibility: 10mi
Dew Point: Wind: 10mph
Humidity: 34% Direction: 340° (NNW)
Pressure: 30.05in Gusts: 0mph
Raw Report DataKSAN 032351Z 34009KT 10SM CLR 17/01 A3005 RMK AO2 SLP174 T01720011 10194 20161 58003
Traffic Incident Summary
Active as of:
Severity:
Category:
InformationThere was an issue retrieving the traffic information for this location. Please try a different location or try again shortly.
Advertisements
Track Severe Weather on mobile